Time;durP1;ratioP1;P1;durP2;ratioP2;P2;SDS_P1;SDS_P2;PMS_P1;PMS_P2;Temp;Humidity;BMP_temperature;BMP_pressure;BME280_temperature;BME280_humidity;BME280_pressure;Samples;Min_cycle;Max_cycle;Signal;HPM_P1;HPM_P2
2023/12/23 00:01:15;;;;;;;9.93;0.80;;;;;;;;;;5014670;28;20038;-96
2023/12/23 00:03:40;;;;;;;6.30;0.90;;;;;;;;;;5022696;28;20078;-96
2023/12/23 00:06:05;;;;;;;6.93;0.80;;;;;;;;;;5039198;28;20070;-96
2023/12/23 00:08:31;;;;;;;11.20;0.90;;;;;;;;;;5019237;28;20029;-94
2023/12/23 00:10:56;;;;;;;10.13;0.90;;;;;;;;;;5019392;28;20120;-94
2023/12/23 00:13:21;;;;;;;17.00;1.23;;;;;;;;;;5006289;28;20018;-95
2023/12/23 00:15:46;;;;;;;6.80;1.10;;;;;;;;;;5017323;28;20473;-96
2023/12/23 00:18:11;;;;;;;12.87;1.10;;;;;;;;;;5015051;28;20036;-96
2023/12/23 00:20:38;;;;;;;16.23;1.37;;;;;;;;;;5014462;28;20024;-95
2023/12/23 00:23:04;;;;;;;17.00;1.45;;;;;;;;;;5021678;28;20018;-96
2023/12/23 00:25:29;;;;;;;13.23;1.73;;;;;;;;;;5003200;28;20469;-95
2023/12/23 00:27:54;;;;;;;12.33;1.70;;;;;;;;;;5028880;28;20018;-94
2023/12/23 00:30:19;;;;;;;11.17;1.50;;;;;;;;;;4994755;28;20045;-95
2023/12/23 00:32:46;;;;;;;10.03;1.90;;;;;;;;;;5028282;28;20273;-94
2023/12/23 00:35:11;;;;;;;15.40;2.20;;;;;;;;;;5009277;28;20018;-94
2023/12/23 00:37:38;;;;;;;9.53;2.70;;;;;;;;;;4994607;28;20121;-94
2023/12/23 00:40:04;;;;;;;15.10;2.10;;;;;;;;;;5030499;28;20025;-95
2023/12/23 00:42:29;;;;;;;13.80;2.30;;;;;;;;;;5009638;28;20064;-92
2023/12/23 00:44:55;;;;;;;15.47;1.90;;;;;;;;;;5027773;28;20026;-93
2023/12/23 00:47:21;;;;;;;13.60;2.43;;;;;;;;;;5012776;28;20104;-93
2023/12/23 00:49:46;;;;;;;14.35;3.53;;;;;;;;;;5014015;28;20030;-94
2023/12/23 00:52:11;;;;;;;12.77;2.50;;;;;;;;;;5013707;28;20025;-94
2023/12/23 00:54:37;;;;;;;15.77;2.53;;;;;;;;;;5013797;28;20021;-94
2023/12/23 00:57:02;;;;;;;20.00;2.30;;;;;;;;;;5013508;28;20128;-94
2023/12/23 00:59:27;;;;;;;12.13;2.20;;;;;;;;;;5021585;28;20037;-94
2023/12/23 01:01:56;;;;;;;13.43;2.60;;;;;;;;;;5014877;28;20033;-93
2023/12/23 01:04:22;;;;;;;10.70;2.20;;;;;;;;;;5014997;28;20025;-95
2023/12/23 01:06:47;;;;;;;18.07;2.70;;;;;;;;;;5038192;28;20017;-95
2023/12/23 01:09:12;;;;;;;10.70;2.40;;;;;;;;;;5038935;28;20045;-96
2023/12/23 01:11:37;;;;;;;19.47;3.40;;;;;;;;;;5038423;28;20022;-92
2023/12/23 01:14:02;;;;;;;22.83;2.50;;;;;;;;;;5016788;28;20121;-93
2023/12/23 01:16:28;;;;;;;25.80;2.63;;;;;;;;;;5011874;28;20050;-94
2023/12/23 01:18:53;;;;;;;24.50;3.40;;;;;;;;;;5016744;28;20060;-93
2023/12/23 01:21:20;;;;;;;22.73;3.33;;;;;;;;;;5012856;28;20010;-92
2023/12/23 01:23:45;;;;;;;30.90;3.40;;;;;;;;;;5013514;28;20481;-93
2023/12/23 01:26:10;;;;;;;21.60;3.27;;;;;;;;;;5010982;28;20021;-93
2023/12/23 01:28:36;;;;;;;23.63;2.97;;;;;;;;;;5016925;28;20396;-92
2023/12/23 01:31:01;;;;;;;29.83;3.83;;;;;;;;;;5034102;28;20017;-93
2023/12/23 01:33:28;;;;;;;25.23;3.00;;;;;;;;;;5000512;28;20474;-94
2023/12/23 01:35:53;;;;;;;22.58;2.97;;;;;;;;;;5035924;28;20049;-93
2023/12/23 01:38:18;;;;;;;17.17;2.77;;;;;;;;;;5037025;28;20054;-94
2023/12/23 01:40:45;;;;;;;23.00;3.07;;;;;;;;;;5020275;28;20036;-93
2023/12/23 01:43:10;;;;;;;20.65;3.03;;;;;;;;;;4995789;28;20381;-93
2023/12/23 01:45:36;;;;;;;19.97;2.80;;;;;;;;;;5020527;28;20025;-92
2023/12/23 01:48:01;;;;;;;23.10;3.13;;;;;;;;;;5032061;28;20051;-93
2023/12/23 01:50:27;;;;;;;25.60;3.27;;;;;;;;;;4998467;28;20663;-92
2023/12/23 01:52:53;;;;;;;27.10;3.35;;;;;;;;;;5000637;28;20088;-93
2023/12/23 01:55:19;;;;;;;26.30;3.00;;;;;;;;;;5013396;28;20033;-92
2023/12/23 01:57:44;;;;;;;26.37;3.30;;;;;;;;;;5014556;28;20076;-93
2023/12/23 02:00:10;;;;;;;25.00;3.30;;;;;;;;;;5013378;28;20025;-92
2023/12/23 02:02:38;;;;;;;27.35;3.78;;;;;;;;;;4996628;28;20477;-93
2023/12/23 02:05:04;;;;;;;27.70;3.03;;;;;;;;;;4997266;28;20013;-92
2023/12/23 02:07:29;;;;;;;26.10;2.92;;;;;;;;;;5027162;28;20168;-92
2023/12/23 02:09:54;;;;;;;21.40;3.27;;;;;;;;;;5018642;28;20026;-92
2023/12/23 02:12:25;;;;;;;16.63;2.80;;;;;;;;;;5016033;28;20025;-94
2023/12/23 02:15:10;;;;;;;19.42;2.53;;;;;;;;;;5016104;28;20385;-91
2023/12/23 02:17:37;;;;;;;23.95;3.05;;;;;;;;;;5014270;28;20045;-93
2023/12/23 02:20:02;;;;;;;19.02;3.35;;;;;;;;;;5021184;28;20025;-93
2023/12/23 02:22:27;;;;;;;14.47;2.67;;;;;;;;;;4996843;28;20112;-93
2023/12/23 02:24:53;;;;;;;21.23;4.07;;;;;;;;;;5013164;28;20022;-93
2023/12/23 02:27:20;;;;;;;17.83;3.17;;;;;;;;;;5017568;28;20761;-93
2023/12/23 02:29:46;;;;;;;24.45;3.30;;;;;;;;;;5013405;28;20486;-93
2023/12/23 02:32:12;;;;;;;21.33;3.13;;;;;;;;;;5013024;28;20025;-93
2023/12/23 02:34:38;;;;;;;22.02;2.92;;;;;;;;;;5023723;28;20029;-92
2023/12/23 02:37:03;;;;;;;20.50;2.87;;;;;;;;;;5028504;28;20033;-92
2023/12/23 02:39:28;;;;;;;18.67;3.30;;;;;;;;;;4999090;28;20481;-91
2023/12/23 02:41:53;;;;;;;25.50;3.20;;;;;;;;;;5014145;28;20029;-92
2023/12/23 02:44:18;;;;;;;22.67;3.03;;;;;;;;;;5032615;28;20005;-92
2023/12/23 02:46:44;;;;;;;19.63;3.43;;;;;;;;;;5017586;28;20482;-92
2023/12/23 02:49:09;;;;;;;25.47;2.93;;;;;;;;;;5014374;28;20071;-93
2023/12/23 02:51:34;;;;;;;24.40;3.40;;;;;;;;;;5031835;28;20041;-92
2023/12/23 02:53:59;;;;;;;22.83;3.33;;;;;;;;;;5004655;28;20533;-92
2023/12/23 02:56:24;;;;;;;22.53;3.10;;;;;;;;;;5011794;28;20052;-92
2023/12/23 02:58:50;;;;;;;23.87;3.07;;;;;;;;;;5012694;28;20026;-92
2023/12/23 03:01:18;;;;;;;19.67;3.08;;;;;;;;;;5022333;28;20056;-92
2023/12/23 03:03:43;;;;;;;21.83;2.70;;;;;;;;;;5031549;28;20037;-93
2023/12/23 03:06:14;;;;;;;25.10;3.00;;;;;;;;;;5026864;28;20648;-91
2023/12/23 03:08:40;;;;;;;23.40;2.93;;;;;;;;;;5011659;28;20026;-93
2023/12/23 03:11:07;;;;;;;23.30;2.75;;;;;;;;;;5029808;28;20022;-93
2023/12/23 03:13:33;;;;;;;19.88;2.80;;;;;;;;;;5039129;28;20112;-93
2023/12/23 03:15:58;;;;;;;15.47;2.40;;;;;;;;;;5041884;28;20053;-93
2023/12/23 03:18:23;;;;;;;17.20;2.80;;;;;;;;;;5042481;28;20022;-92
2023/12/23 03:20:50;;;;;;;17.00;2.80;;;;;;;;;;5036945;28;20026;-92
2023/12/23 03:23:16;;;;;;;22.52;2.47;;;;;;;;;;5015176;28;20075;-92
2023/12/23 03:25:42;;;;;;;23.67;2.35;;;;;;;;;;5031761;28;20607;-93
2023/12/23 03:28:07;;;;;;;18.40;2.30;;;;;;;;;;5025674;28;20069;-94
2023/12/23 03:30:32;;;;;;;15.07;2.20;;;;;;;;;;5018223;28;20026;-95
2023/12/23 03:32:57;;;;;;;19.47;2.60;;;;;;;;;;5016169;28;20026;-93
2023/12/23 03:35:22;;;;;;;13.97;2.20;;;;;;;;;;5014211;28;20124;-92
2023/12/23 03:37:48;;;;;;;25.10;2.60;;;;;;;;;;4999062;28;20030;-96
2023/12/23 03:40:13;;;;;;;22.00;2.87;;;;;;;;;;5025927;28;20386;-95
2023/12/23 03:42:41;;;;;;;23.83;2.60;;;;;;;;;;5034305;28;20006;-96
2023/12/23 03:45:07;;;;;;;18.60;2.50;;;;;;;;;;5010474;28;20021;-94
2023/12/23 03:47:32;;;;;;;12.73;2.05;;;;;;;;;;5035524;28;20037;-96
2023/12/23 03:49:57;;;;;;;20.43;2.60;;;;;;;;;;5035527;28;20021;-96
2023/12/23 03:52:23;;;;;;;17.17;2.73;;;;;;;;;;5051748;28;20025;-95
2023/12/23 03:54:48;;;;;;;23.03;3.33;;;;;;;;;;5025673;28;20014;-95
2023/12/23 03:57:13;;;;;;;17.30;2.90;;;;;;;;;;5028975;28;20145;-95
2023/12/23 03:59:39;;;;;;;14.50;3.03;;;;;;;;;;5014004;28;20018;-96
2023/12/23 04:02:04;;;;;;;20.80;2.78;;;;;;;;;;4996412;28;20466;-95
2023/12/23 04:04:29;;;;;;;16.53;2.60;;;;;;;;;;5022293;28;20083;-95
2023/12/23 04:06:55;;;;;;;20.67;3.00;;;;;;;;;;5016601;28;20033;-95
2023/12/23 04:09:20;;;;;;;14.60;2.83;;;;;;;;;;5033825;28;20373;-95
2023/12/23 04:11:45;;;;;;;16.17;2.70;;;;;;;;;;5034173;28;20029;-95
2023/12/23 04:14:10;;;;;;;17.23;3.40;;;;;;;;;;5031970;28;20029;-95
2023/12/23 04:16:38;;;;;;;19.87;3.30;;;;;;;;;;5013151;28;20105;-96
2023/12/23 04:19:03;;;;;;;13.77;2.58;;;;;;;;;;4995993;28;20025;-96
2023/12/23 04:21:28;;;;;;;22.70;3.20;;;;;;;;;;4995587;28;20105;-95
2023/12/23 04:23:53;;;;;;;21.73;2.83;;;;;;;;;;5025361;28;20060;-96
2023/12/23 04:26:18;;;;;;;17.57;2.70;;;;;;;;;;5016636;28;20507;-96
2023/12/23 04:28:44;;;;;;;12.13;2.63;;;;;;;;;;5033043;28;20064;-96
2023/12/23 04:31:09;;;;;;;13.50;2.60;;;;;;;;;;5032685;28;20010;-95
2023/12/23 04:33:35;;;;;;;17.67;3.03;;;;;;;;;;5032617;28;20354;-96
2023/12/23 04:36:00;;;;;;;19.33;2.60;;;;;;;;;;5000436;28;20022;-95
2023/12/23 04:38:25;;;;;;;16.73;2.40;;;;;;;;;;4995330;28;20073;-96
2023/12/23 04:40:50;;;;;;;18.67;2.40;;;;;;;;;;5012432;28;20116;-96
2023/12/23 04:43:16;;;;;;;12.53;2.20;;;;;;;;;;5018472;28;20030;-94
2023/12/23 04:45:41;;;;;;;14.77;2.30;;;;;;;;;;5032314;28;20028;-96
2023/12/23 04:48:06;;;;;;;13.57;2.63;;;;;;;;;;5025774;28;20025;-95
2023/12/23 04:50:31;;;;;;;12.73;2.10;;;;;;;;;;5014926;28;20101;-95
2023/12/23 04:52:57;;;;;;;9.93;2.37;;;;;;;;;;5015557;28;20287;-94
2023/12/23 04:55:22;;;;;;;14.53;1.93;;;;;;;;;;5034026;28;20040;-96
2023/12/23 04:57:48;;;;;;;14.27;2.23;;;;;;;;;;5033381;28;20030;-94
2023/12/23 05:00:14;;;;;;;17.25;1.80;;;;;;;;;;5015599;28;20029;-95
2023/12/23 05:02:39;;;;;;;17.00;2.20;;;;;;;;;;5036195;28;20029;-96
2023/12/23 05:05:04;;;;;;;12.33;1.93;;;;;;;;;;4999748;28;20014;-96
2023/12/23 05:07:29;;;;;;;17.70;2.33;;;;;;;;;;5019545;28;20044;-95
2023/12/23 05:09:54;;;;;;;20.43;2.27;;;;;;;;;;5021975;28;20014;-95
2023/12/23 05:12:22;;;;;;;22.20;3.17;;;;;;;;;;5035498;28;20006;-95
2023/12/23 05:14:47;;;;;;;14.20;2.33;;;;;;;;;;5008160;28;20434;-96
2023/12/23 05:17:12;;;;;;;17.83;2.80;;;;;;;;;;5019556;28;20091;-94
2023/12/23 05:19:39;;;;;;;13.33;2.30;;;;;;;;;;5037440;28;20027;-95
2023/12/23 05:22:04;;;;;;;11.25;2.03;;;;;;;;;;5035991;28;20358;-96
2023/12/23 05:24:29;;;;;;;18.63;2.90;;;;;;;;;;5019555;28;20037;-95
2023/12/23 05:26:54;;;;;;;17.27;2.50;;;;;;;;;;5017434;28;20022;-95
2023/12/23 05:29:19;;;;;;;13.53;2.30;;;;;;;;;;5016913;28;20041;-96
2023/12/23 05:31:45;;;;;;;13.83;2.37;;;;;;;;;;5016567;28;20095;-94
2023/12/23 05:34:10;;;;;;;15.90;2.67;;;;;;;;;;5003118;28;20032;-94
2023/12/23 05:36:35;;;;;;;16.97;2.47;;;;;;;;;;4998663;28;20041;-95
2023/12/23 05:39:01;;;;;;;11.57;2.10;;;;;;;;;;5015205;28;20017;-96
2023/12/23 05:41:26;;;;;;;18.10;2.80;;;;;;;;;;5012588;28;20030;-96
2023/12/23 05:43:51;;;;;;;10.60;2.30;;;;;;;;;;5026327;28;20030;-95
2023/12/23 05:46:18;;;;;;;14.53;2.80;;;;;;;;;;5035455;28;20317;-95
2023/12/23 05:48:43;;;;;;;16.08;2.83;;;;;;;;;;5035269;28;20018;-95
2023/12/23 05:51:10;;;;;;;15.00;3.27;;;;;;;;;;5016387;28;20048;-95
2023/12/23 05:53:35;;;;;;;8.68;2.05;;;;;;;;;;5004850;28;20033;-96
2023/12/23 05:56:02;;;;;;;12.23;2.40;;;;;;;;;;5018524;28;20021;-95
2023/12/23 05:58:28;;;;;;;11.73;2.10;;;;;;;;;;5017938;28;20034;-96
2023/12/23 06:00:53;;;;;;;16.20;2.37;;;;;;;;;;5035682;28;20333;-95
2023/12/23 06:03:18;;;;;;;14.07;2.23;;;;;;;;;;5011146;28;20381;-94
2023/12/23 06:05:43;;;;;;;14.40;2.70;;;;;;;;;;4997491;28;20035;-92
2023/12/23 06:08:08;;;;;;;15.10;2.40;;;;;;;;;;5013615;28;20026;-92
2023/12/23 06:10:34;;;;;;;19.33;2.70;;;;;;;;;;5030286;28;20013;-91
2023/12/23 06:12:59;;;;;;;16.53;2.60;;;;;;;;;;5011598;28;20105;-89
2023/12/23 06:15:24;;;;;;;24.77;2.87;;;;;;;;;;5025285;28;20437;-90
2023/12/23 06:17:51;;;;;;;17.03;2.30;;;;;;;;;;5014421;28;20055;-89
2023/12/23 06:20:17;;;;;;;17.70;2.40;;;;;;;;;;5031398;28;20047;-90
2023/12/23 06:22:42;;;;;;;15.20;3.37;;;;;;;;;;5015259;28;20026;-91
2023/12/23 06:25:07;;;;;;;11.73;2.00;;;;;;;;;;5029109;28;20489;-89
2023/12/23 06:27:32;;;;;;;15.87;2.47;;;;;;;;;;5038800;28;20029;-90
2023/12/23 06:29:58;;;;;;;11.77;2.40;;;;;;;;;;5027191;28;20026;-90
2023/12/23 06:32:23;;;;;;;15.73;2.67;;;;;;;;;;5020235;28;20009;-90
2023/12/23 06:34:48;;;;;;;18.23;2.53;;;;;;;;;;5018632;28;20558;-91
2023/12/23 06:37:13;;;;;;;16.67;2.10;;;;;;;;;;4994590;28;20041;-90
2023/12/23 06:39:38;;;;;;;13.27;2.57;;;;;;;;;;5012599;28;20570;-91
2023/12/23 06:42:04;;;;;;;20.87;3.23;;;;;;;;;;5024104;28;20033;-90
2023/12/23 06:44:29;;;;;;;11.93;2.20;;;;;;;;;;5028380;28;20020;-90
2023/12/23 06:46:54;;;;;;;10.57;2.13;;;;;;;;;;5037483;28;20025;-91
2023/12/23 06:49:20;;;;;;;13.90;2.00;;;;;;;;;;5020799;28;20021;-91
2023/12/23 06:51:45;;;;;;;9.83;2.00;;;;;;;;;;5030006;28;20105;-91
2023/12/23 06:54:10;;;;;;;17.37;2.30;;;;;;;;;;5019645;28;20017;-89
2023/12/23 06:56:36;;;;;;;13.50;1.87;;;;;;;;;;5034297;28;20056;-91
2023/12/23 06:59:01;;;;;;;14.23;1.80;;;;;;;;;;5033823;28;20137;-90
2023/12/23 07:01:37;;;;;;;14.18;1.85;;;;;;;;;;5014036;28;20068;-90
2023/12/23 07:04:02;;;;;;;20.35;1.92;;;;;;;;;;5031455;28;20520;-90
2023/12/23 07:06:28;;;;;;;15.97;1.80;;;;;;;;;;5033529;28;20115;-90
2023/12/23 07:08:53;;;;;;;14.03;2.17;;;;;;;;;;5029627;28;20433;-90
2023/12/23 07:11:18;;;;;;;11.60;2.10;;;;;;;;;;5013385;28;20033;-90
2023/12/23 07:13:43;;;;;;;12.03;2.57;;;;;;;;;;5007626;28;20034;-90
2023/12/23 07:16:08;;;;;;;18.20;2.20;;;;;;;;;;5019111;28;20026;-89
2023/12/23 07:18:34;;;;;;;13.80;2.03;;;;;;;;;;5014291;28;20547;-90
2023/12/23 07:21:00;;;;;;;18.23;2.50;;;;;;;;;;5012042;28;20093;-90
2023/12/23 07:23:25;;;;;;;16.75;1.80;;;;;;;;;;5012326;28;20032;-90
2023/12/23 07:25:50;;;;;;;13.93;2.20;;;;;;;;;;5011767;28;20030;-90
2023/12/23 07:28:16;;;;;;;21.57;2.20;;;;;;;;;;5017396;28;20037;-89
2023/12/23 07:30:44;;;;;;;15.33;2.07;;;;;;;;;;5030020;28;20040;-89
2023/12/23 07:33:10;;;;;;;21.60;2.17;;;;;;;;;;5010327;28;20566;-90
2023/12/23 07:35:35;;;;;;;21.83;2.67;;;;;;;;;;5014432;28;20018;-89
2023/12/23 07:38:00;;;;;;;14.73;2.30;;;;;;;;;;5011153;28;20029;-89
2023/12/23 07:40:25;;;;;;;18.67;2.03;;;;;;;;;;5016452;28;20448;-87
2023/12/23 07:42:50;;;;;;;15.67;1.90;;;;;;;;;;5010574;28;20033;-87
2023/12/23 07:45:16;;;;;;;19.67;2.10;;;;;;;;;;5021046;28;20040;-88
2023/12/23 07:47:41;;;;;;;17.53;2.00;;;;;;;;;;4998560;28;20044;-87
2023/12/23 07:50:07;;;;;;;16.27;2.05;;;;;;;;;;5009701;28;20029;-88
2023/12/23 07:52:32;;;;;;;14.23;1.80;;;;;;;;;;5029528;28;20021;-91
2023/12/23 07:54:57;;;;;;;15.17;1.43;;;;;;;;;;5016321;28;20029;-88
2023/12/23 07:57:22;;;;;;;11.13;1.30;;;;;;;;;;5016084;28;20754;-88
2023/12/23 07:59:48;;;;;;;11.63;1.67;;;;;;;;;;5017853;28;20416;-88
2023/12/23 08:02:14;;;;;;;13.35;1.75;;;;;;;;;;5009847;28;20773;-88
2023/12/23 08:04:39;;;;;;;11.40;1.60;;;;;;;;;;5017321;28;20050;-88
2023/12/23 08:07:05;;;;;;;11.40;1.40;;;;;;;;;;5018208;28;20065;-87
2023/12/23 08:09:30;;;;;;;18.17;2.30;;;;;;;;;;5010394;28;20647;-87
2023/12/23 08:11:56;;;;;;;14.60;1.33;;;;;;;;;;5026775;28;20055;-87
2023/12/23 08:14:21;;;;;;;13.57;1.70;;;;;;;;;;5007735;28;20013;-87
2023/12/23 08:16:46;;;;;;;10.73;1.70;;;;;;;;;;4993619;28;20044;-86
2023/12/23 08:19:12;;;;;;;10.60;1.43;;;;;;;;;;5018444;28;20465;-87
2023/12/23 08:21:37;;;;;;;12.10;1.40;;;;;;;;;;5005604;28;20056;-87
2023/12/23 08:24:03;;;;;;;10.03;1.37;;;;;;;;;;4996798;28;20037;-86
2023/12/23 08:26:29;;;;;;;16.55;1.80;;;;;;;;;;5010315;28;20389;-87
2023/12/23 08:28:54;;;;;;;10.87;1.47;;;;;;;;;;5003938;28;20030;-87
2023/12/23 08:31:19;;;;;;;14.77;1.63;;;;;;;;;;5019746;28;20048;-87
2023/12/23 08:33:44;;;;;;;14.93;1.93;;;;;;;;;;5009444;28;20057;-88
2023/12/23 08:36:10;;;;;;;9.30;1.37;;;;;;;;;;5024311;28;20485;-88
2023/12/23 08:38:35;;;;;;;7.93;1.27;;;;;;;;;;5011291;28;20061;-88
2023/12/23 08:41:00;;;;;;;10.57;1.25;;;;;;;;;;5028212;28;20511;-88
2023/12/23 08:43:26;;;;;;;11.57;2.33;;;;;;;;;;5014022;28;20108;-88
2023/12/23 08:45:51;;;;;;;11.93;1.30;;;;;;;;;;5011317;28;20022;-87
2023/12/23 08:48:16;;;;;;;8.30;1.27;;;;;;;;;;5007974;28;20033;-88
2023/12/23 08:50:41;;;;;;;9.40;1.47;;;;;;;;;;5013813;28;20577;-88
2023/12/23 08:53:07;;;;;;;9.00;1.33;;;;;;;;;;5010981;28;20112;-86
2023/12/23 08:55:32;;;;;;;13.47;2.17;;;;;;;;;;5013139;28;20496;-89
2023/12/23 08:57:57;;;;;;;12.57;2.13;;;;;;;;;;5020503;28;20090;-87
2023/12/23 09:00:22;;;;;;;14.93;1.60;;;;;;;;;;5027106;28;20488;-87
2023/12/23 09:02:48;;;;;;;16.63;1.70;;;;;;;;;;5018535;28;20036;-87
2023/12/23 09:05:13;;;;;;;11.97;1.90;;;;;;;;;;5023286;28;20036;-87
2023/12/23 09:07:39;;;;;;;11.70;1.87;;;;;;;;;;5026837;28;20029;-89
2023/12/23 09:10:04;;;;;;;12.33;2.20;;;;;;;;;;5001725;28;20533;-88
2023/12/23 09:12:30;;;;;;;14.00;1.95;;;;;;;;;;4999089;28;20030;-89
2023/12/23 09:14:55;;;;;;;11.87;1.37;;;;;;;;;;5020362;28;20018;-89
2023/12/23 09:17:20;;;;;;;15.00;1.83;;;;;;;;;;5027919;28;20030;-89
2023/12/23 09:19:46;;;;;;;7.90;1.60;;;;;;;;;;5012075;28;20137;-89
2023/12/23 09:22:11;;;;;;;12.17;1.53;;;;;;;;;;5006563;28;20030;-89
2023/12/23 09:24:36;;;;;;;14.10;1.87;;;;;;;;;;5009906;28;20025;-91
2023/12/23 09:27:01;;;;;;;8.10;1.50;;;;;;;;;;5011286;28;20041;-88
2023/12/23 09:29:27;;;;;;;8.60;1.50;;;;;;;;;;5007938;28;20293;-87
2023/12/23 09:31:52;;;;;;;10.27;1.57;;;;;;;;;;5007249;28;20473;-89
2023/12/23 09:34:20;;;;;;;9.83;1.97;;;;;;;;;;5028932;28;20396;-89
2023/12/23 09:36:45;;;;;;;13.88;2.10;;;;;;;;;;5024339;28;20025;-89
2023/12/23 09:39:11;;;;;;;10.33;1.80;;;;;;;;;;5014413;28;20056;-89
2023/12/23 09:41:36;;;;;;;9.82;1.80;;;;;;;;;;4998564;28;20068;-88
2023/12/23 09:44:02;;;;;;;11.03;1.63;;;;;;;;;;5016735;28;20036;-89
2023/12/23 09:46:27;;;;;;;7.47;1.87;;;;;;;;;;5014463;28;20030;-89
2023/12/23 09:48:52;;;;;;;11.47;1.37;;;;;;;;;;4995609;28;20018;-89
2023/12/23 09:51:20;;;;;;;13.50;1.90;;;;;;;;;;5012980;28;20109;-89
2023/12/23 09:53:46;;;;;;;13.40;1.48;;;;;;;;;;5023778;28;20029;-90
2023/12/23 09:56:11;;;;;;;17.08;2.00;;;;;;;;;;5016641;28;20048;-88
2023/12/23 09:58:36;;;;;;;8.03;1.67;;;;;;;;;;5026318;28;20489;-90
2023/12/23 10:01:02;;;;;;;14.90;1.73;;;;;;;;;;5016366;28;20054;-89
2023/12/23 10:03:28;;;;;;;10.63;1.80;;;;;;;;;;5014176;28;20477;-88
2023/12/23 10:05:57;;;;;;;9.77;1.42;;;;;;;;;;5032678;28;20021;-89
2023/12/23 10:08:23;;;;;;;9.85;1.50;;;;;;;;;;5016099;28;20022;-89
2023/12/23 10:10:48;;;;;;;10.67;1.57;;;;;;;;;;5018668;28;20032;-90
2023/12/23 10:13:13;;;;;;;9.70;1.37;;;;;;;;;;5006065;28;20340;-90
2023/12/23 10:15:41;;;;;;;9.13;1.67;;;;;;;;;;5031680;28;20033;-90
2023/12/23 10:18:08;;;;;;;12.20;1.73;;;;;;;;;;5009312;28;20102;-90
2023/12/23 10:20:34;;;;;;;11.07;1.90;;;;;;;;;;5013603;28;20028;-90
2023/12/23 10:22:59;;;;;;;15.93;1.70;;;;;;;;;;5020555;28;20561;-88
2023/12/23 10:25:24;;;;;;;7.15;0.90;;;;;;;;;;5022470;28;20068;-89
2023/12/23 10:27:53;;;;;;;11.20;1.60;;;;;;;;;;5026315;28;20026;-89
2023/12/23 10:30:21;;;;;;;8.63;1.52;;;;;;;;;;5026636;28;20492;-91
2023/12/23 10:32:48;;;;;;;10.43;1.43;;;;;;;;;;5021357;28;20044;-89
2023/12/23 10:35:14;;;;;;;10.50;1.63;;;;;;;;;;4994101;28;20025;-91
2023/12/23 10:37:40;;;;;;;7.90;1.15;;;;;;;;;;5004694;28;20120;-88
2023/12/23 10:40:06;;;;;;;8.07;1.33;;;;;;;;;;5029896;28;20053;-88
2023/12/23 10:42:32;;;;;;;10.03;1.40;;;;;;;;;;5013993;28;20091;-86
2023/12/23 10:44:58;;;;;;;10.63;1.10;;;;;;;;;;5009989;28;20430;-86
2023/12/23 10:47:24;;;;;;;10.07;1.33;;;;;;;;;;5001689;28;20063;-86
2023/12/23 10:49:50;;;;;;;12.02;1.75;;;;;;;;;;5007188;28;20427;-86
2023/12/23 10:52:16;;;;;;;6.90;1.20;;;;;;;;;;5012852;28;20021;-87
2023/12/23 10:54:41;;;;;;;8.43;1.37;;;;;;;;;;5031557;28;20041;-87
2023/12/23 10:57:06;;;;;;;10.53;1.50;;;;;;;;;;5013053;28;20549;-88
2023/12/23 10:59:32;;;;;;;6.93;1.10;;;;;;;;;;5011673;28;20065;-89
2023/12/23 11:01:57;;;;;;;7.53;1.03;;;;;;;;;;5023086;28;20446;-88
2023/12/23 11:04:26;;;;;;;10.03;1.43;;;;;;;;;;5031465;28;20669;-88
2023/12/23 11:06:55;;;;;;;9.60;1.20;;;;;;;;;;5024419;28;20013;-89
2023/12/23 11:09:22;;;;;;;6.53;1.23;;;;;;;;;;5023702;28;20384;-89
2023/12/23 11:11:47;;;;;;;7.65;1.30;;;;;;;;;;5032124;28;20345;-90
2023/12/23 11:14:13;;;;;;;8.60;1.10;;;;;;;;;;5031821;28;20025;-91
2023/12/23 11:16:39;;;;;;;5.10;0.90;;;;;;;;;;5038949;28;20029;-89
2023/12/23 11:19:05;;;;;;;6.00;1.08;;;;;;;;;;5021728;28;20437;-90
2023/12/23 11:21:30;;;;;;;9.32;1.33;;;;;;;;;;5015196;28;20018;-89
2023/12/23 11:23:57;;;;;;;6.07;1.10;;;;;;;;;;5021204;28;20033;-90
2023/12/23 11:26:41;;;;;;;5.90;1.20;;;;;;;;;;5011279;28;20025;-89
2023/12/23 11:29:07;;;;;;;5.57;1.10;;;;;;;;;;5011044;28;20032;-90
2023/12/23 11:31:32;;;;;;;6.50;0.90;;;;;;;;;;5014411;28;20017;-91
2023/12/23 11:34:01;;;;;;;10.80;1.07;;;;;;;;;;5014458;28;20029;-91
2023/12/23 11:36:26;;;;;;;7.32;1.30;;;;;;;;;;5015850;28;20018;-93
2023/12/23 11:38:53;;;;;;;5.63;0.80;;;;;;;;;;5024400;28;20108;-90
2023/12/23 11:41:20;;;;;;;5.63;1.20;;;;;;;;;;5011157;28;20036;-89
2023/12/23 11:43:46;;;;;;;5.55;1.33;;;;;;;;;;5012620;28;20041;-89
2023/12/23 11:46:12;;;;;;;8.55;1.40;;;;;;;;;;5019884;28;20026;-90
2023/12/23 11:48:38;;;;;;;7.00;1.30;;;;;;;;;;5012536;28;20018;-91
2023/12/23 11:53:53;;;;;;;5.53;1.00;;;;;;;;;;5641486;22;20046;-88
2023/12/23 11:56:19;;;;;;;4.70;0.88;;;;;;;;;;5002373;28;20555;-89
2023/12/23 11:58:44;;;;;;;6.70;1.47;;;;;;;;;;5011117;28;20112;-91
2023/12/23 12:01:09;;;;;;;3.67;1.08;;;;;;;;;;5010968;28;20109;-90
2023/12/23 12:03:35;;;;;;;7.80;1.07;;;;;;;;;;4976045;28;20121;-91
2023/12/23 12:06:02;;;;;;;5.53;1.20;;;;;;;;;;4980950;28;20379;-89
2023/12/23 12:08:27;;;;;;;6.00;1.08;;;;;;;;;;4986129;28;20094;-88
2023/12/23 12:10:55;;;;;;;1.47;0.80;;;;;;;;;;4990829;28;20112;-89
2023/12/23 12:13:20;;;;;;;3.22;1.25;;;;;;;;;;4986881;28;20038;-87
2023/12/23 12:15:45;;;;;;;4.77;1.27;;;;;;;;;;4990708;28;20454;-88
2023/12/23 12:18:11;;;;;;;5.17;0.90;;;;;;;;;;4972259;28;20035;-88
2023/12/23 12:20:36;;;;;;;7.57;1.00;;;;;;;;;;4988127;28;20037;-88
2023/12/23 12:23:02;;;;;;;5.27;1.17;;;;;;;;;;4984807;28;20052;-88
2023/12/23 12:25:28;;;;;;;2.30;0.70;;;;;;;;;;4989853;28;20014;-88
2023/12/23 12:27:54;;;;;;;5.57;1.40;;;;;;;;;;4987378;28;20026;-88
2023/12/23 12:30:19;;;;;;;5.68;1.00;;;;;;;;;;4989479;28;20155;-88
2023/12/23 12:32:46;;;;;;;4.40;1.13;;;;;;;;;;4983166;28;20113;-88
2023/12/23 12:35:12;;;;;;;5.80;0.93;;;;;;;;;;4970201;28;20015;-88
2023/12/23 12:37:39;;;;;;;7.68;1.30;;;;;;;;;;4970118;28;20469;-87
2023/12/23 12:40:05;;;;;;;6.53;1.03;;;;;;;;;;4952764;28;20078;-88
2023/12/23 12:42:30;;;;;;;9.57;0.95;;;;;;;;;;4971632;28;20043;-88
2023/12/23 12:44:59;;;;;;;6.40;1.53;;;;;;;;;;4972515;28;20023;-87
2023/12/23 12:47:28;;;;;;;7.57;1.23;;;;;;;;;;4976651;28;20565;-87
2023/12/23 12:49:57;;;;;;;10.50;1.35;;;;;;;;;;4962368;28;20046;-88
2023/12/23 12:52:23;;;;;;;12.20;1.30;;;;;;;;;;4995557;28;20033;-90
2023/12/23 12:54:48;;;;;;;10.33;1.70;;;;;;;;;;5013939;28;20026;-89
2023/12/23 12:57:14;;;;;;;9.77;1.13;;;;;;;;;;4977213;28;20042;-89
2023/12/23 12:59:39;;;;;;;4.50;1.03;;;;;;;;;;4963925;28;20285;-89
2023/12/23 13:02:07;;;;;;;7.23;1.03;;;;;;;;;;4971470;28;20034;-89
2023/12/23 13:04:33;;;;;;;6.25;1.05;;;;;;;;;;4979721;28;20037;-90
2023/12/23 13:06:58;;;;;;;7.30;1.50;;;;;;;;;;4979046;28;20018;-90
2023/12/23 13:09:23;;;;;;;8.70;1.17;;;;;;;;;;4974946;28;20107;-90
2023/12/23 13:11:55;;;;;;;5.47;1.00;;;;;;;;;;4984169;28;20018;-90
2023/12/23 13:14:23;;;;;;;6.50;1.10;;;;;;;;;;4985067;28;20054;-90
2023/12/23 13:17:00;;;;;;;4.35;0.82;;;;;;;;;;4958809;28;20049;-90
2023/12/23 13:19:34;;;;;;;5.43;0.70;;;;;;;;;;4992664;28;20043;-91
2023/12/23 13:22:00;;;;;;;6.20;1.00;;;;;;;;;;5005681;23;20112;-91
2023/12/23 13:24:25;;;;;;;5.77;1.03;;;;;;;;;;4980840;28;20298;-92
2023/12/23 13:26:50;;;;;;;5.27;1.00;;;;;;;;;;4992391;28;20036;-91
2023/12/23 13:29:21;;;;;;;6.97;1.30;;;;;;;;;;4992053;28;20077;-90
2023/12/23 13:31:57;;;;;;;4.75;0.90;;;;;;;;;;4997543;28;20018;-90
2023/12/23 13:34:23;;;;;;;6.97;1.10;;;;;;;;;;4994340;28;20030;-91
2023/12/23 13:37:01;;;;;;;5.40;0.83;;;;;;;;;;4983510;28;20148;-94
2023/12/23 13:39:36;;;;;;;;;;;;;;;;;;;;;
2023/12/23 13:42:02;;;;;;;6.00;1.02;;;;;;;;;;4990352;28;20054;-92
2023/12/23 13:44:29;;;;;;;6.80;0.90;;;;;;;;;;4985582;28;20076;-89
2023/12/23 13:47:00;;;;;;;5.85;1.05;;;;;;;;;;4955446;28;20045;-89
2023/12/23 13:49:25;;;;;;;5.22;0.82;;;;;;;;;;4992236;28;20041;-91
2023/12/23 13:51:50;;;;;;;6.03;1.10;;;;;;;;;;4980586;28;20636;-88
2023/12/23 13:54:15;;;;;;;5.47;0.90;;;;;;;;;;4975246;28;20018;-89
2023/12/23 13:56:41;;;;;;;6.67;1.10;;;;;;;;;;4990284;28;20470;-90
2023/12/23 13:59:07;;;;;;;5.17;1.10;;;;;;;;;;4956187;28;20419;-90
2023/12/23 14:01:32;;;;;;;6.53;1.10;;;;;;;;;;4968809;28;20014;-91
2023/12/23 14:03:57;;;;;;;3.53;0.90;;;;;;;;;;4992796;28;20030;-90
2023/12/23 14:06:22;;;;;;;8.03;1.60;;;;;;;;;;4993809;28;20387;-90
2023/12/23 14:08:47;;;;;;;6.73;1.37;;;;;;;;;;4992683;28;20030;-91
2023/12/23 14:11:13;;;;;;;4.80;1.10;;;;;;;;;;4981435;28;20026;-89
2023/12/23 14:13:38;;;;;;;10.37;1.40;;;;;;;;;;4989794;28;20113;-89
2023/12/23 14:16:04;;;;;;;6.53;0.97;;;;;;;;;;4992746;28;20487;-90
2023/12/23 14:18:29;;;;;;;9.97;0.90;;;;;;;;;;4992091;28;20606;-89
2023/12/23 14:20:55;;;;;;;7.73;1.10;;;;;;;;;;4993221;28;20561;-89
2023/12/23 14:23:20;;;;;;;7.72;1.30;;;;;;;;;;4977116;28;20049;-89
2023/12/23 14:25:45;;;;;;;7.10;1.50;;;;;;;;;;4994838;28;20026;-88
2023/12/23 14:28:10;;;;;;;4.40;0.90;;;;;;;;;;4985248;28;20379;-89
2023/12/23 14:30:36;;;;;;;5.90;1.13;;;;;;;;;;4971388;28;20470;-89